Time;durP1;ratioP1;P1;durP2;ratioP2;P2;SDS_P1;SDS_P2;PMS_P1;PMS_P2;Temp;Humidity;BMP_temperature;BMP_pressure;BME280_temperature;BME280_humidity;BME280_pressure;Samples;Min_cycle;Max_cycle;Signal;HPM_P1;HPM_P2
2022/08/19 00:01:37;;;;;;;;;;;20.50;99.90;;;;;;5034631;28;19913;-72
2022/08/19 00:04:05;;;;;;;;;;;20.50;99.90;;;;;;5035102;28;19916;-72
2022/08/19 00:06:31;;;;;;;;;;;20.50;99.90;;;;;;5034954;28;19913;-72
2022/08/19 00:08:57;;;;;;;;;;;20.50;99.90;;;;;;5034674;28;19936;-72
2022/08/19 00:11:25;;;;;;;;;;;20.50;99.90;;;;;;5033691;28;19913;-72
2022/08/19 00:13:52;;;;;;;;;;;20.40;99.90;;;;;;5035064;28;19917;-72
2022/08/19 00:16:19;;;;;;;;;;;20.40;99.90;;;;;;5033884;28;19920;-72
2022/08/19 00:18:45;;;;;;;;;;;20.40;99.90;;;;;;5033286;28;19917;-72
2022/08/19 00:21:11;;;;;;;;;;;20.40;99.90;;;;;;5033793;28;19918;-72
2022/08/19 00:23:37;;;;;;;;;;;20.40;99.90;;;;;;5034346;28;19921;-72
2022/08/19 00:26:04;;;;;;;;;;;20.40;99.90;;;;;;5034657;28;19913;-72
2022/08/19 00:28:30;;;;;;;;;;;20.40;99.90;;;;;;5032549;28;19914;-72
2022/08/19 00:30:56;;;;;;;;;;;20.40;99.90;;;;;;5034443;28;19913;-72
2022/08/19 00:33:22;;;;;;;;;;;20.40;99.90;;;;;;5033964;28;19924;-72
2022/08/19 00:35:48;;;;;;;;;;;20.40;99.90;;;;;;5034334;28;20004;-72
2022/08/19 00:38:14;;;;;;;;;;;20.40;99.90;;;;;;5033544;28;20372;-72
2022/08/19 00:40:43;;;;;;;;;;;20.40;99.90;;;;;;5034411;28;19920;-72
2022/08/19 00:43:10;;;;;;;;;;;20.40;99.90;;;;;;5033408;28;20282;-72
2022/08/19 00:45:36;;;;;;;;;;;20.30;99.90;;;;;;5034026;28;19909;-72
2022/08/19 00:48:06;;;;;;;;;;;20.40;99.90;;;;;;5034310;28;20259;-72
2022/08/19 00:50:32;;;;;;;;;;;20.40;99.90;;;;;;5033416;28;19913;-72
2022/08/19 00:52:59;;;;;;;;;;;20.40;99.90;;;;;;5034048;28;19924;-72
2022/08/19 00:55:28;;;;;;;;;;;20.40;99.90;;;;;;5033481;28;19914;-72
2022/08/19 00:57:56;;;;;;;;;;;20.40;99.90;;;;;;5034057;28;19914;-72
2022/08/19 01:00:24;;;;;;;;;;;20.40;99.90;;;;;;5033379;28;19917;-72
2022/08/19 01:02:50;;;;;;;;;;;20.40;99.90;;;;;;5033763;28;19913;-72
2022/08/19 01:05:20;;;;;;;;;;;20.40;99.90;;;;;;5033280;28;19913;-72
2022/08/19 01:07:47;;;;;;;;;;;20.40;99.90;;;;;;5033424;28;19917;-72
2022/08/19 01:10:15;;;;;;;;;;;20.40;99.90;;;;;;5033089;28;19913;-72
2022/08/19 01:12:41;;;;;;;;;;;20.40;99.90;;;;;;5033570;28;19928;-72
2022/08/19 01:15:08;;;;;;;;;;;20.40;99.90;;;;;;5033426;28;19917;-72
2022/08/19 01:17:36;;;;;;;;;;;20.40;99.90;;;;;;5033683;28;19917;-72
2022/08/19 01:20:03;;;;;;;;;;;20.40;99.90;;;;;;5032447;28;19920;-72
2022/08/19 01:22:59;;;;;;;;;;;20.40;99.90;;;;;;5032843;28;19917;-72
2022/08/19 01:25:29;;;;;;;;;;;20.40;99.90;;;;;;5024061;28;19913;-72
2022/08/19 01:27:55;;;;;;;;;;;20.30;99.90;;;;;;5033329;28;19913;-72
2022/08/19 01:30:23;;;;;;;;;;;20.40;99.90;;;;;;5032528;28;19913;-72
2022/08/19 01:32:50;;;;;;;;;;;20.30;99.90;;;;;;5033162;28;19913;-72
2022/08/19 01:35:17;;;;;;;;;;;20.30;99.90;;;;;;5032527;28;19917;-72
2022/08/19 01:37:45;;;;;;;;;;;20.30;99.90;;;;;;5032811;28;19917;-72
2022/08/19 01:40:11;;;;;;;;;;;20.20;99.90;;;;;;5031722;28;19917;-72
2022/08/19 01:42:37;;;;;;;;;;;20.20;99.90;;;;;;5033490;28;19920;-72
2022/08/19 01:45:04;;;;;;;;;;;20.20;99.90;;;;;;5033219;28;19924;-72
2022/08/19 01:47:30;;;;;;;;;;;20.20;99.90;;;;;;5032260;28;20748;-72
2022/08/19 01:49:57;;;;;;;;;;;20.20;99.90;;;;;;5032211;28;19919;-72
2022/08/19 01:52:23;;;;;;;;;;;20.10;99.90;;;;;;5032121;28;20389;-72
2022/08/19 01:54:49;;;;;;;;;;;20.10;99.90;;;;;;5032841;28;19916;-72
2022/08/19 01:57:15;;;;;;;;;;;20.10;99.90;;;;;;5032175;28;19913;-72
2022/08/19 01:59:42;;;;;;;;;;;20.10;99.90;;;;;;5031454;28;19917;-71
2022/08/19 02:02:08;;;;;;;;;;;20.10;99.90;;;;;;5032581;28;19913;-72
2022/08/19 02:04:35;;;;;;;;;;;20.10;99.90;;;;;;5032157;28;20358;-72
2022/08/19 02:07:01;;;;;;;;;;;20.00;99.90;;;;;;5032467;28;19914;-72
2022/08/19 02:09:27;;;;;;;;;;;20.00;99.90;;;;;;5031863;28;19928;-71
2022/08/19 02:11:53;;;;;;;;;;;19.90;99.90;;;;;;5032376;28;19921;-71
2022/08/19 02:14:19;;;;;;;;;;;19.90;99.90;;;;;;5032150;28;19968;-72
2022/08/19 02:16:45;;;;;;;;;;;19.90;99.90;;;;;;5032549;28;20012;-71
2022/08/19 02:19:11;;;;;;;;;;;19.80;99.90;;;;;;5032201;28;20196;-71
2022/08/19 02:21:37;;;;;;;;;;;19.90;99.90;;;;;;5031683;28;20282;-71
2022/08/19 02:24:03;;;;;;;;;;;19.90;99.90;;;;;;5032278;28;19960;-71
2022/08/19 02:26:30;;;;;;;;;;;19.80;99.90;;;;;;5031733;28;19913;-71
2022/08/19 02:28:56;;;;;;;;;;;19.70;99.90;;;;;;5032265;28;19914;-72
2022/08/19 02:31:23;;;;;;;;;;;19.70;99.90;;;;;;5031975;28;19913;-72
2022/08/19 02:33:50;;;;;;;;;;;19.70;99.90;;;;;;5032638;28;19913;-72
2022/08/19 02:36:16;;;;;;;;;;;19.60;99.90;;;;;;5032085;28;20370;-73
2022/08/19 02:38:43;;;;;;;;;;;19.60;99.90;;;;;;5032623;28;20291;-72
2022/08/19 02:41:21;;;;;;;;;;;19.50;99.90;;;;;;5032283;28;19924;-72
2022/08/19 02:43:47;;;;;;;;;;;19.40;99.90;;;;;;5032505;28;19971;-72
2022/08/19 02:46:20;;;;;;;;;;;19.40;99.90;;;;;;5031644;28;19928;-72
2022/08/19 02:48:50;;;;;;;;;;;19.50;99.90;;;;;;5032359;28;20369;-72
2022/08/19 02:51:27;;;;;;;;;;;19.60;99.90;;;;;;5031721;28;20409;-72
2022/08/19 02:53:53;;;;;;;;;;;19.60;99.90;;;;;;5030903;28;20286;-73
2022/08/19 02:56:19;;;;;;;;;;;19.60;99.90;;;;;;5031777;28;19909;-72
2022/08/19 02:58:46;;;;;;;;;;;19.60;99.90;;;;;;5032169;28;19924;-72
2022/08/19 03:01:19;;;;;;;;;;;19.60;99.90;;;;;;5032246;28;19924;-72
2022/08/19 03:03:46;;;;;;;;;;;19.50;99.90;;;;;;5035930;28;19913;-72
2022/08/19 03:06:13;;;;;;;;;;;19.60;99.90;;;;;;5035564;28;20271;-72
2022/08/19 03:08:40;;;;;;;;;;;19.60;99.90;;;;;;5035240;28;20350;-72
2022/08/19 03:11:12;;;;;;;;;;;19.60;99.90;;;;;;5036058;28;20258;-72
2022/08/19 03:13:38;;;;;;;;;;;19.60;99.90;;;;;;5035467;28;19925;-73
2022/08/19 03:16:04;;;;;;;;;;;19.60;99.90;;;;;;5035847;28;19960;-72
2022/08/19 03:18:30;;;;;;;;;;;19.60;99.90;;;;;;5034940;28;19921;-72
2022/08/19 03:20:56;;;;;;;;;;;19.60;99.90;;;;;;5035943;28;20362;-72
2022/08/19 03:23:22;;;;;;;;;;;19.60;99.90;;;;;;5035376;28;19989;-72
2022/08/19 03:25:49;;;;;;;;;;;19.50;99.90;;;;;;5035885;28;20350;-72
2022/08/19 03:28:16;;;;;;;;;;;19.40;99.90;;;;;;5035902;28;19910;-72
2022/08/19 03:30:43;;;;;;;;;;;19.40;99.90;;;;;;5034887;28;19913;-72
2022/08/19 03:33:11;;;;;;;;;;;19.40;99.90;;;;;;5035751;28;19909;-72
2022/08/19 03:35:37;;;;;;;;;;;19.40;99.90;;;;;;5034950;28;19917;-72
2022/08/19 03:38:04;;;;;;;;;;;19.30;99.90;;;;;;5035273;28;19917;-72
2022/08/19 03:40:34;;;;;;;;;;;19.30;99.90;;;;;;5034615;28;20370;-72
2022/08/19 03:43:00;;;;;;;;;;;19.20;99.90;;;;;;5035528;28;19924;-72
2022/08/19 03:45:27;;;;;;;;;;;19.30;99.90;;;;;;5034906;28;19913;-72
2022/08/19 03:47:53;;;;;;;;;;;19.20;99.90;;;;;;5035450;28;20385;-72
2022/08/19 03:50:19;;;;;;;;;;;19.20;99.90;;;;;;5033351;28;20282;-72
2022/08/19 03:52:51;;;;;;;;;;;19.20;99.90;;;;;;5035057;28;19912;-72
2022/08/19 03:55:18;;;;;;;;;;;19.20;99.90;;;;;;5035101;28;19913;-72
2022/08/19 03:57:45;;;;;;;;;;;19.10;99.90;;;;;;5034817;28;19916;-72
2022/08/19 04:00:12;;;;;;;;;;;19.10;99.90;;;;;;5035335;28;20282;-72
2022/08/19 04:02:37;;;;;;;;;;;19.10;99.90;;;;;;5034748;28;19913;-72
2022/08/19 04:05:04;;;;;;;;;;;19.00;99.90;;;;;;5034685;28;19916;-72
2022/08/19 04:07:30;;;;;;;;;;;19.00;99.90;;;;;;5034430;28;19913;-72
2022/08/19 04:09:56;;;;;;;;;;;19.00;99.90;;;;;;5034835;28;20000;-72
2022/08/19 04:12:22;;;;;;;;;;;19.00;99.90;;;;;;5034098;28;19927;-73
2022/08/19 04:14:48;;;;;;;;;;;19.00;99.90;;;;;;5034713;28;19972;-72
2022/08/19 04:17:14;;;;;;;;;;;19.00;99.90;;;;;;5034976;28;19913;-72
2022/08/19 04:19:42;;;;;;;;;;;19.10;99.90;;;;;;5033716;28;19920;-72
2022/08/19 04:22:10;;;;;;;;;;;19.10;99.90;;;;;;5034435;28;19913;-72
2022/08/19 04:24:36;;;;;;;;;;;19.00;99.90;;;;;;5033829;28;19920;-72
2022/08/19 04:27:03;;;;;;;;;;;19.00;99.90;;;;;;5034493;28;19913;-72
2022/08/19 04:29:29;;;;;;;;;;;19.00;99.90;;;;;;5033775;28;19957;-72
2022/08/19 04:31:56;;;;;;;;;;;19.00;99.90;;;;;;5034617;28;19909;-72
2022/08/19 04:34:25;;;;;;;;;;;19.00;99.90;;;;;;5033654;28;19913;-72
2022/08/19 04:36:51;;;;;;;;;;;18.90;99.90;;;;;;5034533;28;19913;-72
2022/08/19 04:39:20;;;;;;;;;;;18.80;99.90;;;;;;5032996;28;19924;-72
2022/08/19 04:44:32;;;;;;;;;;;18.80;99.90;;;;;;5033413;28;20070;-72
2022/08/19 04:46:58;;;;;;;;;;;18.90;99.90;;;;;;5034056;28;19913;-72
2022/08/19 04:49:25;;;;;;;;;;;18.90;99.90;;;;;;5033340;28;19920;-72
2022/08/19 04:51:53;;;;;;;;;;;18.90;99.90;;;;;;5032863;28;19920;-72
2022/08/19 04:54:24;;;;;;;;;;;19.00;99.90;;;;;;5034027;28;19920;-72
2022/08/19 04:56:52;;;;;;;;;;;19.10;99.90;;;;;;5034165;28;19913;-73
2022/08/19 04:59:19;;;;;;;;;;;19.10;99.90;;;;;;5033699;28;19917;-72
2022/08/19 05:01:49;;;;;;;;;;;19.10;99.90;;;;;;5033145;28;19924;-72
2022/08/19 05:04:17;;;;;;;;;;;19.20;99.90;;;;;;5033717;28;19920;-72
2022/08/19 05:06:43;;;;;;;;;;;19.30;99.90;;;;;;5033055;28;20421;-72
2022/08/19 05:09:09;;;;;;;;;;;19.40;99.90;;;;;;5033765;28;19913;-72
2022/08/19 05:11:38;;;;;;;;;;;19.50;99.90;;;;;;5032910;28;19944;-73
2022/08/19 05:14:06;;;;;;;;;;;19.60;99.90;;;;;;5033849;28;19940;-72
2022/08/19 05:16:32;;;;;;;;;;;19.60;99.90;;;;;;5032331;28;20292;-73
2022/08/19 05:24:27;;;;;;;;;;;19.80;99.90;;;;;;5032102;28;19913;-73
2022/08/19 05:26:56;;;;;;;;;;;19.90;99.90;;;;;;5033046;28;20313;-72
2022/08/19 05:29:23;;;;;;;;;;;19.90;99.90;;;;;;5032984;28;19909;-72
2022/08/19 05:31:50;;;;;;;;;;;20.10;99.90;;;;;;5032959;28;20290;-72
2022/08/19 05:34:17;;;;;;;;;;;20.30;99.90;;;;;;5032466;28;19913;-72
2022/08/19 05:36:44;;;;;;;;;;;20.50;99.90;;;;;;5032311;28;19917;-72
2022/08/19 05:39:13;;;;;;;;;;;20.60;99.90;;;;;;5032723;28;19917;-73
2022/08/19 05:41:43;;;;;;;;;;;20.60;99.90;;;;;;5032415;28;19924;-72
2022/08/19 05:44:09;;;;;;;;;;;20.70;99.90;;;;;;5033093;28;19913;-72
2022/08/19 05:46:37;;;;;;;;;;;20.80;99.90;;;;;;5032409;28;19920;-72
2022/08/19 05:49:06;;;;;;;;;;;20.90;99.90;;;;;;5032983;28;20377;-73
2022/08/19 05:51:33;;;;;;;;;;;21.30;99.90;;;;;;5032002;28;19913;-73
2022/08/19 05:54:00;;;;;;;;;;;21.70;99.90;;;;;;5032555;28;19916;-72
2022/08/19 05:56:26;;;;;;;;;;;22.10;99.90;;;;;;5031892;28;19936;-73
2022/08/19 05:58:55;;;;;;;;;;;22.10;99.90;;;;;;5032594;28;19916;-73
2022/08/19 06:01:21;;;;;;;;;;;22.50;99.10;;;;;;5032408;28;19928;-73
2022/08/19 06:03:50;;;;;;;;;;;22.70;98.20;;;;;;5032056;28;19965;-72
2022/08/19 06:06:16;;;;;;;;;;;22.70;98.20;;;;;;5032573;28;19913;-72
2022/08/19 06:08:42;;;;;;;;;;;22.90;96.90;;;;;;5031993;28;20270;-72
2022/08/19 06:11:12;;;;;;;;;;;22.60;97.20;;;;;;5032356;28;20266;-72
2022/08/19 06:13:38;;;;;;;;;;;22.50;98.10;;;;;;5031868;28;20283;-72
2022/08/19 06:16:04;;;;;;;;;;;22.50;98.00;;;;;;5032228;28;19913;-72
2022/08/19 06:18:30;;;;;;;;;;;22.60;97.30;;;;;;5031838;28;19917;-73
2022/08/19 06:20:56;;;;;;;;;;;22.40;97.50;;;;;;5031784;28;19917;-72
2022/08/19 06:23:22;;;;;;;;;;;22.30;97.70;;;;;;5032270;28;19909;-72
2022/08/19 06:25:48;;;;;;;;;;;22.30;97.60;;;;;;5031689;28;19913;-72
2022/08/19 06:28:14;;;;;;;;;;;22.20;97.90;;;;;;5032012;28;20392;-71
2022/08/19 06:30:41;;;;;;;;;;;22.30;97.80;;;;;;5031866;28;19913;-71
2022/08/19 06:33:07;;;;;;;;;;;22.20;98.00;;;;;;5032567;28;19917;-71
2022/08/19 06:35:38;;;;;;;;;;;22.40;97.40;;;;;;5032061;28;19913;-72
2022/08/19 06:38:04;;;;;;;;;;;22.30;97.50;;;;;;5036600;28;20385;-72
2022/08/19 06:40:31;;;;;;;;;;;22.70;96.80;;;;;;5035522;28;19940;-72
2022/08/19 06:42:59;;;;;;;;;;;22.70;96.30;;;;;;5036260;28;19917;-72
2022/08/19 06:45:25;;;;;;;;;;;22.40;97.10;;;;;;5036469;28;20366;-72
2022/08/19 06:47:55;;;;;;;;;;;22.40;97.00;;;;;;5035706;28;19913;-72
2022/08/19 06:50:22;;;;;;;;;;;22.40;97.70;;;;;;5036071;28;20378;-72
2022/08/19 06:52:48;;;;;;;;;;;22.30;97.40;;;;;;5035468;28;19909;-72
2022/08/19 06:55:15;;;;;;;;;;;22.20;97.90;;;;;;5035932;28;19913;-72
2022/08/19 06:57:42;;;;;;;;;;;22.00;98.30;;;;;;5035361;28;19916;-71
2022/08/19 07:00:13;;;;;;;;;;;22.00;98.10;;;;;;5035753;28;19917;-72
2022/08/19 07:02:40;;;;;;;;;;;22.10;98.30;;;;;;5035332;28;20354;-72
2022/08/19 07:05:06;;;;;;;;;;;22.10;98.10;;;;;;5035791;28;19914;-72
2022/08/19 07:07:33;;;;;;;;;;;22.10;98.20;;;;;;5035261;28;19916;-72
2022/08/19 07:09:59;;;;;;;;;;;22.10;98.20;;;;;;5035956;28;19913;-72
2022/08/19 07:12:25;;;;;;;;;;;22.30;97.60;;;;;;5035591;28;19944;-71
2022/08/19 07:14:52;;;;;;;;;;;22.40;97.50;;;;;;5035261;28;19924;-71
2022/08/19 07:17:19;;;;;;;;;;;22.50;97.30;;;;;;5035605;28;19920;-71
2022/08/19 07:19:45;;;;;;;;;;;22.90;96.60;;;;;;5050367;28;20389;-71
2022/08/19 07:22:12;;;;;;;;;;;23.00;95.80;;;;;;5035479;28;19916;-71
2022/08/19 07:24:38;;;;;;;;;;;22.70;96.30;;;;;;5034799;28;20263;-71
2022/08/19 07:27:06;;;;;;;;;;;22.90;96.20;;;;;;5035094;28;20346;-71
2022/08/19 07:29:33;;;;;;;;;;;22.90;96.00;;;;;;5034749;28;19921;-72
2022/08/19 07:32:00;;;;;;;;;;;22.80;96.20;;;;;;5035316;28;19913;-71
2022/08/19 07:34:27;;;;;;;;;;;22.70;96.40;;;;;;5034642;28;19914;-72
2022/08/19 07:36:54;;;;;;;;;;;22.80;96.20;;;;;;5034676;28;19917;-71
2022/08/19 07:39:22;;;;;;;;;;;23.10;95.40;;;;;;5033628;28;19917;-71
2022/08/19 07:41:50;;;;;;;;;;;23.10;95.50;;;;;;5034175;28;19936;-71
2022/08/19 07:44:17;;;;;;;;;;;23.60;94.60;;;;;;5035020;28;19925;-71
2022/08/19 07:46:45;;;;;;;;;;;25.00;92.50;;;;;;5033778;28;19914;-71
2022/08/19 07:49:17;;;;;;;;;;;25.70;89.10;;;;;;5033880;28;19913;-71
2022/08/19 07:51:43;;;;;;;;;;;24.70;90.20;;;;;;5034156;28;19913;-72
2022/08/19 07:54:11;;;;;;;;;;;24.40;91.30;;;;;;5035106;28;19920;-72
2022/08/19 07:56:37;;;;;;;;;;;24.90;90.60;;;;;;5034469;28;19920;-71
2022/08/19 07:59:04;;;;;;;;;;;25.40;88.60;;;;;;5034700;28;19920;-71
2022/08/19 08:01:30;;;;;;;;;;;26.00;85.20;;;;;;5034725;28;19924;-71
2022/08/19 08:09:28;;;;;;;;;;;24.50;90.20;;;;;;5034754;28;20258;-71
2022/08/19 08:12:00;;;;;;;;;;;23.90;91.30;;;;;;5033818;28;19932;-71
2022/08/19 08:14:30;;;;;;;;;;;23.50;92.80;;;;;;5034610;28;19917;-71
2022/08/19 08:16:57;;;;;;;;;;;23.90;92.10;;;;;;5033943;28;19913;-71
2022/08/19 08:19:24;;;;;;;;;;;24.70;90.40;;;;;;5034403;28;19913;-73
2022/08/19 08:21:50;;;;;;;;;;;25.20;87.00;;;;;;5033780;28;19924;-72
2022/08/19 08:24:16;;;;;;;;;;;25.40;86.90;;;;;;5034623;28;20306;-71
2022/08/19 08:26:43;;;;;;;;;;;25.50;85.00;;;;;;5033871;28;20283;-72
2022/08/19 08:29:12;;;;;;;;;;;25.40;86.30;;;;;;5034499;28;19920;-72
2022/08/19 08:31:42;;;;;;;;;;;26.10;83.90;;;;;;5033700;28;19925;-72
2022/08/19 08:34:08;;;;;;;;;;;26.00;83.20;;;;;;5034455;28;20363;-72
2022/08/19 08:36:41;;;;;;;;;;;26.00;81.30;;;;;;5034394;28;19913;-72
2022/08/19 08:39:08;;;;;;;;;;;26.40;79.50;;;;;;5034534;28;19917;-72
2022/08/19 08:41:40;;;;;;;;;;;25.90;80.70;;;;;;5034202;28;19925;-72
2022/08/19 08:44:11;;;;;;;;;;;25.80;81.30;;;;;;5034332;28;19917;-73
2022/08/19 08:46:46;;;;;;;;;;;26.00;81.60;;;;;;5033460;28;19921;-73
2022/08/19 08:49:15;;;;;;;;;;;26.10;80.20;;;;;;5034490;28;20000;-72
2022/08/19 08:51:47;;;;;;;;;;;26.20;79.00;;;;;;5033569;28;19913;-72
2022/08/19 08:54:14;;;;;;;;;;;26.00;79.20;;;;;;5034067;28;19917;-71
2022/08/19 08:56:44;;;;;;;;;;;25.30;79.70;;;;;;5032357;28;19928;-72
2022/08/19 08:59:24;;;;;;;;;;;25.50;79.70;;;;;;5033771;28;19917;-72
2022/08/19 09:01:50;;;;;;;;;;;25.90;79.30;;;;;;5031880;28;19976;-72
2022/08/19 09:04:16;;;;;;;;;;;26.50;77.70;;;;;;5034017;28;19913;-71
2022/08/19 09:07:03;;;;;;;;;;;26.50;77.50;;;;;;5032743;28;19913;-72
2022/08/19 09:09:34;;;;;;;;;;;27.10;75.40;;;;;;5033414;28;19913;-72
2022/08/19 09:12:05;;;;;;;;;;;26.80;73.30;;;;;;5014911;28;19921;-71
2022/08/19 09:14:34;;;;;;;;;;;26.40;73.80;;;;;;5033678;28;20397;-72
2022/08/19 09:17:03;;;;;;;;;;;26.00;74.20;;;;;;5032537;28;19913;-71
2022/08/19 09:19:29;;;;;;;;;;;25.60;75.80;;;;;;5033161;28;19940;-71
2022/08/19 09:21:55;;;;;;;;;;;25.90;75.20;;;;;;5032824;28;19925;-71
2022/08/19 09:24:21;;;;;;;;;;;26.40;75.00;;;;;;5033016;28;19920;-71
2022/08/19 09:26:47;;;;;;;;;;;26.50;72.30;;;;;;5032726;28;19913;-72
2022/08/19 09:29:13;;;;;;;;;;;26.10;75.50;;;;;;5033426;28;19924;-71
2022/08/19 09:31:39;;;;;;;;;;;27.10;72.80;;;;;;5032804;28;20326;-72
2022/08/19 09:34:05;;;;;;;;;;;26.70;73.00;;;;;;5031871;28;19920;-71
2022/08/19 09:36:33;;;;;;;;;;;27.10;74.70;;;;;;5033193;28;19913;-72
2022/08/19 09:39:00;;;;;;;;;;;26.80;72.10;;;;;;5032271;28;19921;-72
2022/08/19 09:41:26;;;;;;;;;;;26.40;72.30;;;;;;5032933;28;20309;-71
2022/08/19 09:43:55;;;;;;;;;;;26.20;72.10;;;;;;5032224;28;19940;-71
2022/08/19 09:46:22;;;;;;;;;;;26.40;69.90;;;;;;5032885;28;20366;-71
2022/08/19 09:48:50;;;;;;;;;;;26.00;71.10;;;;;;5032112;28;20247;-72
2022/08/19 09:51:17;;;;;;;;;;;26.00;71.70;;;;;;5033219;28;19913;-71
2022/08/19 09:53:44;;;;;;;;;;;25.80;72.80;;;;;;5032185;28;19917;-72
2022/08/19 09:56:10;;;;;;;;;;;25.50;73.90;;;;;;5032433;28;19909;-71
2022/08/19 09:58:37;;;;;;;;;;;25.50;74.60;;;;;;5032785;28;19999;-71
2022/08/19 10:01:04;;;;;;;;;;;25.70;74.50;;;;;;5032285;28;19917;-71
2022/08/19 10:03:31;;;;;;;;;;;25.80;73.20;;;;;;5032754;28;19920;-72
2022/08/19 10:05:58;;;;;;;;;;;25.50;73.10;;;;;;5031474;28;19913;-72
2022/08/19 10:08:29;;;;;;;;;;;25.50;73.70;;;;;;5032770;28;20274;-72
2022/08/19 10:10:56;;;;;;;;;;;25.70;72.40;;;;;;5031496;28;19913;-72
2022/08/19 10:13:24;;;;;;;;;;;26.50;69.50;;;;;;5032513;28;19925;-72
2022/08/19 10:15:51;;;;;;;;;;;26.90;69.40;;;;;;5032063;28;19914;-72
2022/08/19 10:18:18;;;;;;;;;;;27.30;69.80;;;;;;5032426;28;19909;-72
2022/08/19 10:20:45;;;;;;;;;;;26.90;67.90;;;;;;5031558;28;20282;-72
2022/08/19 10:23:12;;;;;;;;;;;26.10;70.80;;;;;;5032219;28;19917;-72
2022/08/19 10:25:38;;;;;;;;;;;26.00;70.60;;;;;;5032308;28;20307;-71
2022/08/19 10:28:05;;;;;;;;;;;26.30;71.20;;;;;;5031438;28;20016;-72
2022/08/19 10:30:32;;;;;;;;;;;26.50;70.20;;;;;;5032190;28;20276;-72
2022/08/19 10:32:58;;;;;;;;;;;26.60;70.50;;;;;;5031532;28;19957;-72
2022/08/19 10:35:27;;;;;;;;;;;26.90;69.10;;;;;;5032154;28;20012;-72
2022/08/19 10:37:53;;;;;;;;;;;26.90;69.60;;;;;;5031499;28;20392;-72
2022/08/19 10:40:19;;;;;;;;;;;26.60;69.90;;;;;;5031896;28;19917;-72
2022/08/19 10:42:45;;;;;;;;;;;26.50;70.70;;;;;;5032055;28;19922;-73
2022/08/19 10:45:11;;;;;;;;;;;26.90;70.00;;;;;;5031928;28;20290;-72
2022/08/19 10:47:37;;;;;;;;;;;27.10;67.90;;;;;;5032273;28;19909;-72
2022/08/19 10:52:49;;;;;;;;;;;26.60;67.50;;;;;;5031304;28;19913;-72
2022/08/19 10:57:59;;;;;;;;;;;26.70;67.10;;;;;;5031390;28;19936;-72
2022/08/19 11:00:25;;;;;;;;;;;27.20;66.60;;;;;;5031995;28;19917;-72
2022/08/19 11:02:52;;;;;;;;;;;27.40;64.20;;;;;;5031625;28;19914;-72
2022/08/19 11:05:18;;;;;;;;;;;27.30;64.50;;;;;;5031910;28;19913;-72
2022/08/19 11:07:44;;;;;;;;;;;26.60;64.30;;;;;;5031383;28;19917;-76
2022/08/19 11:10:12;;;;;;;;;;;26.30;65.80;;;;;;5032100;28;20362;-72
2022/08/19 11:12:39;;;;;;;;;;;26.40;66.50;;;;;;5031902;28;20288;-72
2022/08/19 11:15:10;;;;;;;;;;;26.40;66.80;;;;;;5031385;28;19921;-72
2022/08/19 11:17:43;;;;;;;;;;;26.60;66.80;;;;;;5031881;28;19913;-72
2022/08/19 11:20:12;;;;;;;;;;;26.60;65.70;;;;;;5031153;28;19921;-72
2022/08/19 11:22:39;;;;;;;;;;;26.60;65.40;;;;;;5032206;28;19917;-72
2022/08/19 11:25:06;;;;;;;;;;;26.70;67.20;;;;;;5034878;28;19917;-72
2022/08/19 11:27:33;;;;;;;;;;;27.10;65.20;;;;;;5035343;28;19913;-72
2022/08/19 11:30:00;;;;;;;;;;;26.90;64.30;;;;;;5034644;28;19920;-72
2022/08/19 11:32:27;;;;;;;;;;;26.70;65.50;;;;;;5035577;28;19916;-72
2022/08/19 11:34:53;;;;;;;;;;;27.20;65.70;;;;;;5034524;28;19913;-72
2022/08/19 11:37:19;;;;;;;;;;;27.50;64.00;;;;;;5035428;28;19919;-72
2022/08/19 11:39:45;;;;;;;;;;;27.30;62.50;;;;;;5035620;28;19921;-73
2022/08/19 11:44:56;;;;;;;;;;;27.60;60.90;;;;;;5034813;28;19924;-72
2022/08/19 11:47:22;;;;;;;;;;;27.60;61.10;;;;;;5035432;28;19911;-72
2022/08/19 11:49:48;;;;;;;;;;;27.60;60.70;;;;;;5034760;28;19921;-73
2022/08/19 11:52:14;;;;;;;;;;;27.80;60.90;;;;;;5035508;28;19916;-71
2022/08/19 11:54:40;;;;;;;;;;;28.40;60.70;;;;;;5034629;28;19913;-72
2022/08/19 11:57:06;;;;;;;;;;;27.90;60.20;;;;;;5034436;28;19920;-72
2022/08/19 11:59:32;;;;;;;;;;;27.40;60.10;;;;;;5034819;28;20302;-72
2022/08/19 12:01:58;;;;;;;;;;;27.60;60.60;;;;;;5034159;28;19917;-72
2022/08/19 12:04:24;;;;;;;;;;;28.00;59.90;;;;;;5034767;28;19920;-72
2022/08/19 12:06:51;;;;;;;;;;;28.20;58.40;;;;;;5033993;28;19913;-72
2022/08/19 12:09:17;;;;;;;;;;;28.10;58.10;;;;;;5035017;28;19916;-71
2022/08/19 12:11:43;;;;;;;;;;;28.30;58.10;;;;;;5034651;28;19921;-72
2022/08/19 12:14:11;;;;;;;;;;;28.20;58.00;;;;;;5034312;28;19917;-72
2022/08/19 12:16:37;;;;;;;;;;;28.20;57.50;;;;;;5034764;28;19913;-72
2022/08/19 12:19:04;;;;;;;;;;;28.00;57.60;;;;;;5034030;28;19913;-71
2022/08/19 12:21:31;;;;;;;;;;;28.20;56.30;;;;;;5034328;28;19944;-71
2022/08/19 12:23:57;;;;;;;;;;;28.30;56.60;;;;;;5033783;28;19913;-72
2022/08/19 12:26:24;;;;;;;;;;;28.30;55.50;;;;;;5034557;28;19917;-72
2022/08/19 12:28:50;;;;;;;;;;;28.10;56.50;;;;;;5033784;28;19936;-72
2022/08/19 12:31:17;;;;;;;;;;;27.90;55.50;;;;;;5034432;28;19909;-72
2022/08/19 12:33:43;;;;;;;;;;;27.60;55.90;;;;;;5033872;28;19913;-72
2022/08/19 12:36:10;;;;;;;;;;;27.50;55.50;;;;;;5033424;28;19917;-71
2022/08/19 12:38:37;;;;;;;;;;;27.20;54.70;;;;;;5034106;28;20357;-72
2022/08/19 12:41:06;;;;;;;;;;;27.40;54.80;;;;;;5033458;28;19932;-72
2022/08/19 12:43:32;;;;;;;;;;;27.80;53.60;;;;;;5033914;28;19924;-72
2022/08/19 12:45:58;;;;;;;;;;;28.30;53.40;;;;;;5033589;28;19917;-72
2022/08/19 12:48:24;;;;;;;;;;;28.50;52.80;;;;;;5034069;28;19914;-72
2022/08/19 12:50:50;;;;;;;;;;;28.50;51.30;;;;;;5033050;28;19913;-70
2022/08/19 12:53:17;;;;;;;;;;;28.40;51.10;;;;;;5034075;28;20019;-71
2022/08/19 12:55:43;;;;;;;;;;;28.50;51.20;;;;;;5033917;28;19913;-72
2022/08/19 12:58:10;;;;;;;;;;;28.30;50.40;;;;;;5033238;28;19921;-72
2022/08/19 13:00:36;;;;;;;;;;;28.30;50.00;;;;;;5033959;28;19925;-72
2022/08/19 13:03:02;;;;;;;;;;;28.30;50.20;;;;;;5033137;28;20003;-72
2022/08/19 13:05:30;;;;;;;;;;;28.60;49.90;;;;;;5033622;28;19920;-71
2022/08/19 13:07:57;;;;;;;;;;;28.80;49.50;;;;;;5033019;28;20044;-72
2022/08/19 13:10:27;;;;;;;;;;;28.90;49.30;;;;;;5033863;28;19913;-72
2022/08/19 13:12:53;;;;;;;;;;;28.70;49.50;;;;;;5033276;28;19981;-73
2022/08/19 13:15:20;;;;;;;;;;;28.80;49.10;;;;;;5033724;28;19921;-72
2022/08/19 13:17:48;;;;;;;;;;;29.20;49.10;;;;;;5033326;28;19913;-72
2022/08/19 13:20:15;;;;;;;;;;;29.20;48.90;;;;;;5032874;28;20255;-72
2022/08/19 13:22:42;;;;;;;;;;;29.40;48.10;;;;;;5033332;28;20102;-72
2022/08/19 13:25:08;;;;;;;;;;;29.40;49.00;;;;;;5032506;28;19921;-72
2022/08/19 13:27:35;;;;;;;;;;;29.40;49.10;;;;;;5033410;28;19913;-72
2022/08/19 13:35:31;;;;;;;;;;;29.50;48.60;;;;;;5033296;28;20401;-72
2022/08/19 13:37:57;;;;;;;;;;;29.40;48.70;;;;;;5032627;28;20259;-72
2022/08/19 13:40:25;;;;;;;;;;;29.60;49.20;;;;;;5033086;28;19925;-72
2022/08/19 13:42:53;;;;;;;;;;;29.90;47.90;;;;;;5033285;28;19927;-72
2022/08/19 13:45:21;;;;;;;;;;;29.30;48.90;;;;;;5032478;28;19909;-72
2022/08/19 13:47:48;;;;;;;;;;;29.20;48.90;;;;;;5032722;28;19920;-72
2022/08/19 13:50:15;;;;;;;;;;;29.30;48.80;;;;;;5032246;28;20115;-72
2022/08/19 13:52:41;;;;;;;;;;;29.60;48.60;;;;;;5032929;28;20358;-72
2022/08/19 13:55:08;;;;;;;;;;;29.80;48.60;;;;;;5030871;28;19913;-72
2022/08/19 13:57:35;;;;;;;;;;;29.80;49.20;;;;;;5033148;28;19920;-72
2022/08/19 14:00:01;;;;;;;;;;;29.50;47.60;;;;;;5032208;28;20254;-72
2022/08/19 14:02:30;;;;;;;;;;;29.20;47.10;;;;;;5032692;28;19928;-72
2022/08/19 14:04:57;;;;;;;;;;;29.00;46.20;;;;;;5032272;28;19909;-73
2022/08/19 14:07:24;;;;;;;;;;;29.50;47.20;;;;;;5032552;28;19928;-72
2022/08/19 14:09:50;;;;;;;;;;;29.60;46.00;;;;;;5032455;28;19913;-72
2022/08/19 14:12:20;;;;;;;;;;;29.60;46.70;;;;;;5031841;28;19922;-73
2022/08/19 14:14:46;;;;;;;;;;;29.70;46.30;;;;;;5032582;28;20286;-72
2022/08/19 14:17:12;;;;;;;;;;;29.80;44.70;;;;;;5031607;28;19976;-72
2022/08/19 14:19:38;;;;;;;;;;;29.70;44.70;;;;;;5032560;28;20274;-72
2022/08/19 14:22:05;;;;;;;;;;;29.60;46.20;;;;;;5031722;28;20000;-73
2022/08/19 14:24:31;;;;;;;;;;;29.60;44.80;;;;;;5032396;28;19913;-71
2022/08/19 14:26:57;;;;;;;;;;;29.40;43.90;;;;;;5031639;28;19920;-73
2022/08/19 14:29:23;;;;;;;;;;;29.50;44.10;;;;;;5032283;28;20350;-71
2022/08/19 14:31:49;;;;;;;;;;;29.60;44.10;;;;;;5032350;28;19913;-71
2022/08/19 14:34:15;;;;;;;;;;;29.80;43.60;;;;;;5031942;28;20012;-72
2022/08/19 14:36:41;;;;;;;;;;;29.70;44.20;;;;;;5031349;28;19913;-72
2022/08/19 14:39:09;;;;;;;;;;;29.60;44.60;;;;;;5031509;28;19920;-71
2022/08/19 14:41:35;;;;;;;;;;;29.90;45.00;;;;;;5032009;28;20290;-72
2022/08/19 14:44:01;;;;;;;;;;;30.00;45.70;;;;;;5031646;28;19913;-72